sensor_id;sensor_type;location;lat;lon;timestamp;P1;durP1;ratioP1;P2;durP2;ratioP2
30289;SDS011;17105;55.652;37.710;2022-07-04T00:00:30;27.05;;;11.02;;
30289;SDS011;17105;55.652;37.710;2022-07-04T00:01:04;31.20;;;9.40;;
30289;SDS011;17105;55.652;37.710;2022-07-04T00:01:40;25.00;;;8.93;;
30289;SDS011;17105;55.652;37.710;2022-07-04T00:02:15;28.50;;;8.77;;
30289;SDS011;17105;55.652;37.710;2022-07-04T00:02:50;28.00;;;8.85;;
30289;SDS011;17105;55.652;37.710;2022-07-04T00:03:24;24.67;;;7.30;;
30289;SDS011;17105;55.652;37.710;2022-07-04T00:03:59;24.48;;;8.02;;
30289;SDS011;17105;55.652;37.710;2022-07-04T00:04:34;24.80;;;8.30;;
30289;SDS011;17105;55.652;37.710;2022-07-04T00:05:08;27.23;;;8.32;;
30289;SDS011;17105;55.652;37.710;2022-07-04T00:05:43;24.27;;;8.18;;
30289;SDS011;17105;55.652;37.710;2022-07-04T00:06:18;28.25;;;8.10;;
30289;SDS011;17105;55.652;37.710;2022-07-04T00:06:54;23.70;;;7.68;;
30289;SDS011;17105;55.652;37.710;2022-07-04T00:07:29;31.65;;;8.52;;
30289;SDS011;17105;55.652;37.710;2022-07-04T00:08:04;28.15;;;8.35;;
30289;SDS011;17105;55.652;37.710;2022-07-04T00:08:37;22.98;;;8.20;;
30289;SDS011;17105;55.652;37.710;2022-07-04T00:09:13;24.33;;;7.60;;
30289;SDS011;17105;55.652;37.710;2022-07-04T00:09:47;27.08;;;8.20;;
30289;SDS011;17105;55.652;37.710;2022-07-04T00:10:24;32.90;;;9.07;;
30289;SDS011;17105;55.652;37.710;2022-07-04T00:10:58;14.90;;;7.07;;
30289;SDS011;17105;55.652;37.710;2022-07-04T00:11:32;28.35;;;8.05;;
30289;SDS011;17105;55.652;37.710;2022-07-04T00:12:07;29.88;;;7.75;;
30289;SDS011;17105;55.652;37.710;2022-07-04T00:12:42;23.98;;;8.10;;
30289;SDS011;17105;55.652;37.710;2022-07-04T00:13:17;26.40;;;7.85;;
30289;SDS011;17105;55.652;37.710;2022-07-04T00:13:50;21.85;;;7.40;;
30289;SDS011;17105;55.652;37.710;2022-07-04T00:14:26;21.45;;;7.28;;
30289;SDS011;17105;55.652;37.710;2022-07-04T00:15:01;19.35;;;7.72;;
30289;SDS011;17105;55.652;37.710;2022-07-04T00:15:36;28.88;;;8.02;;
30289;SDS011;17105;55.652;37.710;2022-07-04T00:16:11;31.48;;;7.80;;
30289;SDS011;17105;55.652;37.710;2022-07-04T00:16:45;23.17;;;7.80;;
30289;SDS011;17105;55.652;37.710;2022-07-04T00:17:20;29.67;;;8.57;;
30289;SDS011;17105;55.652;37.710;2022-07-04T00:17:54;25.20;;;7.43;;
30289;SDS011;17105;55.652;37.710;2022-07-04T00:18:28;22.17;;;7.50;;
30289;SDS011;17105;55.652;37.710;2022-07-04T00:19:03;20.73;;;7.50;;
30289;SDS011;17105;55.652;37.710;2022-07-04T00:19:38;21.38;;;6.93;;
30289;SDS011;17105;55.652;37.710;2022-07-04T00:20:12;24.27;;;7.50;;
30289;SDS011;17105;55.652;37.710;2022-07-04T00:20:48;23.58;;;7.80;;
30289;SDS011;17105;55.652;37.710;2022-07-04T00:21:21;22.73;;;7.00;;
30289;SDS011;17105;55.652;37.710;2022-07-04T00:21:56;22.73;;;7.30;;
30289;SDS011;17105;55.652;37.710;2022-07-04T00:22:30;16.52;;;6.40;;
30289;SDS011;17105;55.652;37.710;2022-07-04T00:23:04;18.83;;;6.88;;
30289;SDS011;17105;55.652;37.710;2022-07-04T00:23:39;25.02;;;7.50;;
30289;SDS011;17105;55.652;37.710;2022-07-04T00:24:14;23.02;;;7.32;;
30289;SDS011;17105;55.652;37.710;2022-07-04T00:24:48;18.90;;;6.38;;
30289;SDS011;17105;55.652;37.710;2022-07-04T00:25:25;18.30;;;6.13;;
30289;SDS011;17105;55.652;37.710;2022-07-04T00:25:59;17.75;;;6.35;;
30289;SDS011;17105;55.652;37.710;2022-07-04T00:26:34;20.50;;;7.05;;
30289;SDS011;17105;55.652;37.710;2022-07-04T00:27:09;21.58;;;6.70;;
30289;SDS011;17105;55.652;37.710;2022-07-04T00:27:43;27.95;;;6.93;;
30289;SDS011;17105;55.652;37.710;2022-07-04T00:28:18;18.13;;;7.05;;
30289;SDS011;17105;55.652;37.710;2022-07-04T00:28:51;21.92;;;6.78;;
30289;SDS011;17105;55.652;37.710;2022-07-04T00:29:27;17.85;;;6.05;;
30289;SDS011;17105;55.652;37.710;2022-07-04T00:30:02;17.95;;;6.10;;
30289;SDS011;17105;55.652;37.710;2022-07-04T00:30:38;21.35;;;6.18;;
30289;SDS011;17105;55.652;37.710;2022-07-04T00:31:14;29.27;;;7.65;;
30289;SDS011;17105;55.652;37.710;2022-07-04T00:31:47;23.77;;;6.93;;
30289;SDS011;17105;55.652;37.710;2022-07-04T00:32:21;18.83;;;6.78;;
30289;SDS011;17105;55.652;37.710;2022-07-04T00:32:57;20.52;;;6.68;;
30289;SDS011;17105;55.652;37.710;2022-07-04T00:33:31;21.55;;;6.95;;
30289;SDS011;17105;55.652;37.710;2022-07-04T00:34:06;16.60;;;6.72;;
30289;SDS011;17105;55.652;37.710;2022-07-04T00:34:39;18.40;;;6.50;;
30289;SDS011;17105;55.652;37.710;2022-07-04T00:35:13;23.45;;;6.50;;
30289;SDS011;17105;55.652;37.710;2022-07-04T00:35:49;20.88;;;6.70;;
30289;SDS011;17105;55.652;37.710;2022-07-04T00:36:22;16.30;;;6.95;;
30289;SDS011;17105;55.652;37.710;2022-07-04T00:36:58;19.60;;;6.22;;
30289;SDS011;17105;55.652;37.710;2022-07-04T00:37:32;21.27;;;6.53;;
30289;SDS011;17105;55.652;37.710;2022-07-04T00:38:06;16.23;;;6.65;;
30289;SDS011;17105;55.652;37.710;2022-07-04T00:38:41;19.50;;;7.13;;
30289;SDS011;17105;55.652;37.710;2022-07-04T00:39:15;18.27;;;6.68;;
30289;SDS011;17105;55.652;37.710;2022-07-04T00:39:48;18.40;;;6.30;;
30289;SDS011;17105;55.652;37.710;2022-07-04T00:40:25;23.13;;;7.25;;
30289;SDS011;17105;55.652;37.710;2022-07-04T00:40:59;21.83;;;6.43;;
30289;SDS011;17105;55.652;37.710;2022-07-04T00:41:33;22.10;;;6.95;;
30289;SDS011;17105;55.652;37.710;2022-07-04T00:42:07;25.38;;;6.60;;
30289;SDS011;17105;55.652;37.710;2022-07-04T00:42:41;25.30;;;8.57;;
30289;SDS011;17105;55.652;37.710;2022-07-04T00:43:20;18.98;;;6.65;;
30289;SDS011;17105;55.652;37.710;2022-07-04T00:44:00;24.77;;;6.70;;
30289;SDS011;17105;55.652;37.710;2022-07-04T00:44:44;20.33;;;6.43;;
30289;SDS011;17105;55.652;37.710;2022-07-04T00:45:19;18.42;;;6.50;;
30289;SDS011;17105;55.652;37.710;2022-07-04T00:45:53;20.73;;;6.60;;
30289;SDS011;17105;55.652;37.710;2022-07-04T00:46:27;25.63;;;5.97;;
30289;SDS011;17105;55.652;37.710;2022-07-04T00:47:04;23.65;;;7.35;;
30289;SDS011;17105;55.652;37.710;2022-07-04T00:47:40;14.50;;;6.53;;
30289;SDS011;17105;55.652;37.710;2022-07-04T00:48:14;17.63;;;7.13;;
30289;SDS011;17105;55.652;37.710;2022-07-04T00:48:51;18.13;;;6.53;;
30289;SDS011;17105;55.652;37.710;2022-07-04T00:49:25;19.98;;;6.70;;
30289;SDS011;17105;55.652;37.710;2022-07-04T00:49:59;18.23;;;6.25;;
30289;SDS011;17105;55.652;37.710;2022-07-04T00:50:34;25.08;;;6.88;;
30289;SDS011;17105;55.652;37.710;2022-07-04T00:51:09;13.68;;;6.50;;
30289;SDS011;17105;55.652;37.710;2022-07-04T00:51:45;18.33;;;7.15;;
30289;SDS011;17105;55.652;37.710;2022-07-04T00:52:20;20.88;;;6.72;;
30289;SDS011;17105;55.652;37.710;2022-07-04T00:52:53;19.70;;;6.25;;
30289;SDS011;17105;55.652;37.710;2022-07-04T00:53:30;18.02;;;6.22;;
30289;SDS011;17105;55.652;37.710;2022-07-04T00:54:05;14.32;;;6.35;;
30289;SDS011;17105;55.652;37.710;2022-07-04T00:54:41;20.58;;;6.78;;
30289;SDS011;17105;55.652;37.710;2022-07-04T00:55:15;19.40;;;6.47;;
30289;SDS011;17105;55.652;37.710;2022-07-04T00:55:52;20.27;;;6.57;;
30289;SDS011;17105;55.652;37.710;2022-07-04T00:56:26;22.25;;;7.20;;
30289;SDS011;17105;55.652;37.710;2022-07-04T00:57:01;19.25;;;6.70;;
30289;SDS011;17105;55.652;37.710;2022-07-04T00:57:37;18.42;;;6.38;;
30289;SDS011;17105;55.652;37.710;2022-07-04T00:58:11;16.15;;;6.65;;
30289;SDS011;17105;55.652;37.710;2022-07-04T00:58:45;17.02;;;7.03;;
30289;SDS011;17105;55.652;37.710;2022-07-04T00:59:20;32.90;;;8.52;;
30289;SDS011;17105;55.652;37.710;2022-07-04T00:59:55;23.42;;;6.43;;
30289;SDS011;17105;55.652;37.710;2022-07-04T01:00:29;21.95;;;6.63;;
30289;SDS011;17105;55.652;37.710;2022-07-04T01:01:04;37.42;;;7.45;;
30289;SDS011;17105;55.652;37.710;2022-07-04T01:01:38;23.88;;;8.05;;
30289;SDS011;17105;55.652;37.710;2022-07-04T01:02:12;19.58;;;6.47;;
30289;SDS011;17105;55.652;37.710;2022-07-04T01:02:48;19.85;;;7.45;;
30289;SDS011;17105;55.652;37.710;2022-07-04T01:03:23;16.65;;;6.38;;
30289;SDS011;17105;55.652;37.710;2022-07-04T01:03:57;16.17;;;6.47;;
30289;SDS011;17105;55.652;37.710;2022-07-04T01:04:32;20.27;;;6.93;;
30289;SDS011;17105;55.652;37.710;2022-07-04T01:05:07;19.33;;;6.07;;
30289;SDS011;17105;55.652;37.710;2022-07-04T01:05:41;20.38;;;6.43;;
30289;SDS011;17105;55.652;37.710;2022-07-04T01:06:18;18.45;;;6.57;;
30289;SDS011;17105;55.652;37.710;2022-07-04T01:06:53;18.08;;;6.93;;
30289;SDS011;17105;55.652;37.710;2022-07-04T01:07:27;19.02;;;6.43;;
30289;SDS011;17105;55.652;37.710;2022-07-04T01:08:03;19.10;;;7.03;;
30289;SDS011;17105;55.652;37.710;2022-07-04T01:08:37;19.77;;;6.60;;
30289;SDS011;17105;55.652;37.710;2022-07-04T01:09:14;18.23;;;6.10;;
30289;SDS011;17105;55.652;37.710;2022-07-04T01:09:50;15.73;;;6.10;;
30289;SDS011;17105;55.652;37.710;2022-07-04T01:10:25;18.13;;;6.05;;
30289;SDS011;17105;55.652;37.710;2022-07-04T01:11:01;20.75;;;6.50;;
30289;SDS011;17105;55.652;37.710;2022-07-04T01:11:36;30.00;;;6.78;;
30289;SDS011;17105;55.652;37.710;2022-07-04T01:12:11;17.88;;;6.72;;
30289;SDS011;17105;55.652;37.710;2022-07-04T01:13:00;17.83;;;6.53;;
30289;SDS011;17105;55.652;37.710;2022-07-04T01:13:34;19.45;;;7.20;;
30289;SDS011;17105;55.652;37.710;2022-07-04T01:14:09;23.08;;;7.18;;
30289;SDS011;17105;55.652;37.710;2022-07-04T01:14:44;19.92;;;6.47;;
30289;SDS011;17105;55.652;37.710;2022-07-04T01:15:18;20.02;;;6.35;;
30289;SDS011;17105;55.652;37.710;2022-07-04T01:15:52;17.45;;;6.28;;
30289;SDS011;17105;55.652;37.710;2022-07-04T01:16:28;21.08;;;6.75;;
30289;SDS011;17105;55.652;37.710;2022-07-04T01:17:03;20.95;;;6.47;;
30289;SDS011;17105;55.652;37.710;2022-07-04T01:17:36;16.15;;;6.47;;
30289;SDS011;17105;55.652;37.710;2022-07-04T01:18:11;19.42;;;6.60;;
30289;SDS011;17105;55.652;37.710;2022-07-04T01:18:45;17.23;;;6.40;;
30289;SDS011;17105;55.652;37.710;2022-07-04T01:19:20;19.55;;;5.90;;
30289;SDS011;17105;55.652;37.710;2022-07-04T01:19:55;17.10;;;6.20;;
30289;SDS011;17105;55.652;37.710;2022-07-04T01:20:34;16.00;;;6.32;;
30289;SDS011;17105;55.652;37.710;2022-07-04T01:21:09;18.55;;;6.63;;
30289;SDS011;17105;55.652;37.710;2022-07-04T01:21:43;19.35;;;7.95;;
30289;SDS011;17105;55.652;37.710;2022-07-04T01:22:17;17.77;;;7.10;;
30289;SDS011;17105;55.652;37.710;2022-07-04T01:22:53;26.48;;;6.60;;
30289;SDS011;17105;55.652;37.710;2022-07-04T01:23:28;18.00;;;6.95;;
30289;SDS011;17105;55.652;37.710;2022-07-04T01:24:03;16.77;;;6.35;;
30289;SDS011;17105;55.652;37.710;2022-07-04T01:24:38;22.33;;;6.40;;
30289;SDS011;17105;55.652;37.710;2022-07-04T01:25:12;20.55;;;6.85;;
30289;SDS011;17105;55.652;37.710;2022-07-04T01:25:47;22.42;;;6.90;;
30289;SDS011;17105;55.652;37.710;2022-07-04T01:26:22;24.77;;;7.18;;
30289;SDS011;17105;55.652;37.710;2022-07-04T01:26:56;21.17;;;6.53;;
30289;SDS011;17105;55.652;37.710;2022-07-04T01:27:29;20.38;;;6.90;;
30289;SDS011;17105;55.652;37.710;2022-07-04T01:28:05;19.90;;;6.68;;
30289;SDS011;17105;55.652;37.710;2022-07-04T01:28:39;16.77;;;6.93;;
30289;SDS011;17105;55.652;37.710;2022-07-04T01:29:13;15.10;;;5.72;;
30289;SDS011;17105;55.652;37.710;2022-07-04T01:29:51;17.38;;;6.65;;
30289;SDS011;17105;55.652;37.710;2022-07-04T01:30:25;28.88;;;6.85;;
30289;SDS011;17105;55.652;37.710;2022-07-04T01:30:59;22.88;;;6.95;;
30289;SDS011;17105;55.652;37.710;2022-07-04T01:31:35;24.83;;;6.82;;
30289;SDS011;17105;55.652;37.710;2022-07-04T01:32:10;23.33;;;6.95;;
30289;SDS011;17105;55.652;37.710;2022-07-04T01:32:46;23.75;;;7.90;;
30289;SDS011;17105;55.652;37.710;2022-07-04T01:33:21;31.65;;;7.90;;
30289;SDS011;17105;55.652;37.710;2022-07-04T01:33:56;30.25;;;6.55;;
30289;SDS011;17105;55.652;37.710;2022-07-04T01:34:29;18.77;;;6.72;;
30289;SDS011;17105;55.652;37.710;2022-07-04T01:35:08;28.98;;;6.93;;
30289;SDS011;17105;55.652;37.710;2022-07-04T01:35:43;35.83;;;7.60;;
30289;SDS011;17105;55.652;37.710;2022-07-04T01:36:17;22.10;;;7.00;;
30289;SDS011;17105;55.652;37.710;2022-07-04T01:36:49;23.90;;;7.53;;
30289;SDS011;17105;55.652;37.710;2022-07-04T01:37:25;21.02;;;6.88;;
30289;SDS011;17105;55.652;37.710;2022-07-04T01:38:01;21.08;;;7.05;;
30289;SDS011;17105;55.652;37.710;2022-07-04T01:38:34;22.77;;;6.72;;
30289;SDS011;17105;55.652;37.710;2022-07-04T01:39:08;21.20;;;6.90;;
30289;SDS011;17105;55.652;37.710;2022-07-04T01:39:43;20.25;;;7.28;;
30289;SDS011;17105;55.652;37.710;2022-07-04T01:40:16;29.05;;;7.13;;
30289;SDS011;17105;55.652;37.710;2022-07-04T01:40:52;19.40;;;7.15;;
30289;SDS011;17105;55.652;37.710;2022-07-04T01:41:25;18.30;;;6.88;;
30289;SDS011;17105;55.652;37.710;2022-07-04T01:42:02;19.42;;;6.57;;
30289;SDS011;17105;55.652;37.710;2022-07-04T01:42:37;23.90;;;6.00;;
30289;SDS011;17105;55.652;37.710;2022-07-04T01:43:12;22.83;;;7.30;;
30289;SDS011;17105;55.652;37.710;2022-07-04T01:43:46;21.83;;;6.40;;
30289;SDS011;17105;55.652;37.710;2022-07-04T01:44:21;20.90;;;7.13;;
30289;SDS011;17105;55.652;37.710;2022-07-04T01:44:55;24.33;;;6.70;;
30289;SDS011;17105;55.652;37.710;2022-07-04T01:45:30;22.65;;;7.97;;
30289;SDS011;17105;55.652;37.710;2022-07-04T01:46:09;25.02;;;6.95;;
30289;SDS011;17105;55.652;37.710;2022-07-04T01:46:43;19.25;;;6.65;;
30289;SDS011;17105;55.652;37.710;2022-07-04T01:47:17;16.70;;;7.25;;
30289;SDS011;17105;55.652;37.710;2022-07-04T01:47:53;23.52;;;6.80;;
30289;SDS011;17105;55.652;37.710;2022-07-04T01:48:27;23.05;;;6.90;;
30289;SDS011;17105;55.652;37.710;2022-07-04T01:49:01;16.23;;;6.57;;
30289;SDS011;17105;55.652;37.710;2022-07-04T01:49:36;18.13;;;7.35;;
30289;SDS011;17105;55.652;37.710;2022-07-04T01:50:11;17.40;;;6.60;;
30289;SDS011;17105;55.652;37.710;2022-07-04T01:50:46;23.58;;;7.95;;
30289;SDS011;17105;55.652;37.710;2022-07-04T01:51:21;21.42;;;7.47;;
30289;SDS011;17105;55.652;37.710;2022-07-04T01:51:57;27.08;;;7.80;;
30289;SDS011;17105;55.652;37.710;2022-07-04T01:52:32;30.95;;;7.75;;
30289;SDS011;17105;55.652;37.710;2022-07-04T01:53:06;19.90;;;7.53;;
30289;SDS011;17105;55.652;37.710;2022-07-04T01:53:40;17.98;;;7.63;;
30289;SDS011;17105;55.652;37.710;2022-07-04T01:54:16;17.08;;;7.30;;
30289;SDS011;17105;55.652;37.710;2022-07-04T01:54:51;19.63;;;7.53;;
30289;SDS011;17105;55.652;37.710;2022-07-04T01:55:25;17.23;;;7.55;;
30289;SDS011;17105;55.652;37.710;2022-07-04T01:56:00;19.00;;;7.20;;
30289;SDS011;17105;55.652;37.710;2022-07-04T01:56:34;16.88;;;8.30;;
30289;SDS011;17105;55.652;37.710;2022-07-04T01:57:09;18.42;;;7.28;;
30289;SDS011;17105;55.652;37.710;2022-07-04T01:57:45;21.58;;;7.88;;
30289;SDS011;17105;55.652;37.710;2022-07-04T01:58:19;26.45;;;7.35;;
30289;SDS011;17105;55.652;37.710;2022-07-04T01:58:53;21.33;;;7.38;;
30289;SDS011;17105;55.652;37.710;2022-07-04T01:59:29;15.13;;;8.07;;
30289;SDS011;17105;55.652;37.710;2022-07-04T02:00:23;17.75;;;7.57;;
30289;SDS011;17105;55.652;37.710;2022-07-04T02:01:15;18.80;;;7.05;;
30289;SDS011;17105;55.652;37.710;2022-07-04T02:02:09;14.45;;;6.78;;
30289;SDS011;17105;55.652;37.710;2022-07-04T02:02:47;20.42;;;7.97;;
30289;SDS011;17105;55.652;37.710;2022-07-04T02:03:23;26.42;;;10.80;;
30289;SDS011;17105;55.652;37.710;2022-07-04T02:03:57;23.33;;;9.15;;
30289;SDS011;17105;55.652;37.710;2022-07-04T02:04:32;22.13;;;12.20;;
30289;SDS011;17105;55.652;37.710;2022-07-04T02:05:07;36.72;;;21.08;;
30289;SDS011;17105;55.652;37.710;2022-07-04T02:05:43;31.35;;;17.70;;
30289;SDS011;17105;55.652;37.710;2022-07-04T02:06:19;19.50;;;8.80;;
30289;SDS011;17105;55.652;37.710;2022-07-04T02:06:53;24.65;;;9.52;;
30289;SDS011;17105;55.652;37.710;2022-07-04T02:07:28;25.80;;;8.93;;
30289;SDS011;17105;55.652;37.710;2022-07-04T02:08:02;19.25;;;9.07;;
30289;SDS011;17105;55.652;37.710;2022-07-04T02:08:38;23.35;;;8.23;;
30289;SDS011;17105;55.652;37.710;2022-07-04T02:09:29;26.92;;;7.68;;
30289;SDS011;17105;55.652;37.710;2022-07-04T02:10:05;18.52;;;7.45;;
30289;SDS011;17105;55.652;37.710;2022-07-04T02:10:39;19.10;;;7.45;;
30289;SDS011;17105;55.652;37.710;2022-07-04T02:11:14;22.23;;;7.68;;
30289;SDS011;17105;55.652;37.710;2022-07-04T02:11:48;15.77;;;7.10;;
30289;SDS011;17105;55.652;37.710;2022-07-04T02:12:49;20.45;;;7.07;;
30289;SDS011;17105;55.652;37.710;2022-07-04T02:13:36;21.73;;;8.23;;
30289;SDS011;17105;55.652;37.710;2022-07-04T02:14:30;17.77;;;7.38;;
30289;SDS011;17105;55.652;37.710;2022-07-04T02:15:07;21.48;;;7.75;;
30289;SDS011;17105;55.652;37.710;2022-07-04T02:15:42;28.40;;;7.93;;
30289;SDS011;17105;55.652;37.710;2022-07-04T02:16:16;27.02;;;7.95;;
30289;SDS011;17105;55.652;37.710;2022-07-04T02:16:51;16.70;;;7.65;;
30289;SDS011;17105;55.652;37.710;2022-07-04T02:17:26;19.67;;;8.07;;
30289;SDS011;17105;55.652;37.710;2022-07-04T02:18:01;22.13;;;8.48;;
30289;SDS011;17105;55.652;37.710;2022-07-04T02:18:36;12.32;;;7.18;;
30289;SDS011;17105;55.652;37.710;2022-07-04T02:19:09;25.02;;;7.50;;
30289;SDS011;17105;55.652;37.710;2022-07-04T02:19:43;25.83;;;7.50;;
30289;SDS011;17105;55.652;37.710;2022-07-04T02:20:18;24.90;;;7.28;;
30289;SDS011;17105;55.652;37.710;2022-07-04T02:20:52;25.70;;;7.72;;
30289;SDS011;17105;55.652;37.710;2022-07-04T02:21:29;18.25;;;7.15;;
30289;SDS011;17105;55.652;37.710;2022-07-04T02:22:04;20.17;;;6.82;;
30289;SDS011;17105;55.652;37.710;2022-07-04T02:22:38;20.48;;;7.68;;
30289;SDS011;17105;55.652;37.710;2022-07-04T02:23:13;17.90;;;7.72;;
30289;SDS011;17105;55.652;37.710;2022-07-04T02:23:47;15.82;;;6.60;;
30289;SDS011;17105;55.652;37.710;2022-07-04T02:24:21;19.35;;;7.32;;
30289;SDS011;17105;55.652;37.710;2022-07-04T02:24:56;14.25;;;6.38;;
30289;SDS011;17105;55.652;37.710;2022-07-04T02:25:30;12.90;;;6.72;;
30289;SDS011;17105;55.652;37.710;2022-07-04T02:26:04;17.27;;;7.45;;
30289;SDS011;17105;55.652;37.710;2022-07-04T02:26:40;18.25;;;6.57;;
30289;SDS011;17105;55.652;37.710;2022-07-04T02:27:15;25.25;;;7.45;;
30289;SDS011;17105;55.652;37.710;2022-07-04T02:27:49;14.82;;;7.25;;
30289;SDS011;17105;55.652;37.710;2022-07-04T02:28:22;12.75;;;7.15;;
30289;SDS011;17105;55.652;37.710;2022-07-04T02:28:56;18.83;;;7.65;;
30289;SDS011;17105;55.652;37.710;2022-07-04T02:29:30;17.67;;;7.43;;
30289;SDS011;17105;55.652;37.710;2022-07-04T02:30:06;16.67;;;6.85;;
30289;SDS011;17105;55.652;37.710;2022-07-04T02:30:41;20.17;;;7.70;;
30289;SDS011;17105;55.652;37.710;2022-07-04T02:31:16;15.65;;;7.30;;
30289;SDS011;17105;55.652;37.710;2022-07-04T02:31:51;17.42;;;6.57;;
30289;SDS011;17105;55.652;37.710;2022-07-04T02:32:27;17.55;;;7.13;;
30289;SDS011;17105;55.652;37.710;2022-07-04T02:33:00;25.77;;;7.03;;
30289;SDS011;17105;55.652;37.710;2022-07-04T02:33:35;19.38;;;7.32;;
30289;SDS011;17105;55.652;37.710;2022-07-04T02:34:09;16.48;;;6.40;;
30289;SDS011;17105;55.652;37.710;2022-07-04T02:34:44;16.98;;;7.07;;
30289;SDS011;17105;55.652;37.710;2022-07-04T02:35:20;14.43;;;6.93;;
30289;SDS011;17105;55.652;37.710;2022-07-04T02:35:54;19.40;;;7.90;;
30289;SDS011;17105;55.652;37.710;2022-07-04T02:36:30;12.98;;;7.10;;
30289;SDS011;17105;55.652;37.710;2022-07-04T02:37:04;22.50;;;8.35;;
30289;SDS011;17105;55.652;37.710;2022-07-04T02:37:38;28.05;;;9.27;;
30289;SDS011;17105;55.652;37.710;2022-07-04T02:38:13;21.33;;;8.02;;
30289;SDS011;17105;55.652;37.710;2022-07-04T02:38:48;18.90;;;7.38;;
30289;SDS011;17105;55.652;37.710;2022-07-04T02:39:23;15.55;;;7.03;;
30289;SDS011;17105;55.652;37.710;2022-07-04T02:39:57;31.45;;;8.32;;
30289;SDS011;17105;55.652;37.710;2022-07-04T02:40:41;26.05;;;8.00;;
30289;SDS011;17105;55.652;37.710;2022-07-04T02:41:16;25.08;;;8.40;;
30289;SDS011;17105;55.652;37.710;2022-07-04T02:41:51;16.95;;;7.43;;
30289;SDS011;17105;55.652;37.710;2022-07-04T02:42:28;22.45;;;6.95;;
30289;SDS011;17105;55.652;37.710;2022-07-04T02:43:03;21.30;;;7.05;;
30289;SDS011;17105;55.652;37.710;2022-07-04T02:43:37;15.32;;;6.60;;
30289;SDS011;17105;55.652;37.710;2022-07-04T02:44:12;14.38;;;6.93;;
30289;SDS011;17105;55.652;37.710;2022-07-04T02:44:46;11.98;;;6.70;;
30289;SDS011;17105;55.652;37.710;2022-07-04T02:45:21;14.77;;;6.82;;
30289;SDS011;17105;55.652;37.710;2022-07-04T02:45:56;14.90;;;7.00;;
30289;SDS011;17105;55.652;37.710;2022-07-04T02:46:30;19.05;;;7.78;;
30289;SDS011;17105;55.652;37.710;2022-07-04T02:47:05;21.13;;;6.97;;
30289;SDS011;17105;55.652;37.710;2022-07-04T02:47:41;21.50;;;7.93;;
30289;SDS011;17105;55.652;37.710;2022-07-04T02:48:14;19.70;;;8.00;;
30289;SDS011;17105;55.652;37.710;2022-07-04T02:48:47;27.42;;;7.78;;
30289;SDS011;17105;55.652;37.710;2022-07-04T02:49:22;18.75;;;6.68;;
30289;SDS011;17105;55.652;37.710;2022-07-04T02:49:56;14.07;;;6.80;;
30289;SDS011;17105;55.652;37.710;2022-07-04T02:50:35;18.88;;;6.68;;
30289;SDS011;17105;55.652;37.710;2022-07-04T02:51:09;21.40;;;7.15;;
30289;SDS011;17105;55.652;37.710;2022-07-04T02:51:45;15.00;;;6.45;;
30289;SDS011;17105;55.652;37.710;2022-07-04T02:52:21;10.30;;;6.38;;
30289;SDS011;17105;55.652;37.710;2022-07-04T02:52:57;24.35;;;7.35;;
30289;SDS011;17105;55.652;37.710;2022-07-04T02:53:31;14.75;;;6.90;;
30289;SDS011;17105;55.652;37.710;2022-07-04T02:54:07;17.02;;;7.53;;
30289;SDS011;17105;55.652;37.710;2022-07-04T02:54:41;12.70;;;6.60;;
30289;SDS011;17105;55.652;37.710;2022-07-04T02:55:16;12.98;;;7.05;;
30289;SDS011;17105;55.652;37.710;2022-07-04T02:55:51;23.38;;;7.18;;
30289;SDS011;17105;55.652;37.710;2022-07-04T02:56:26;17.70;;;7.25;;
30289;SDS011;17105;55.652;37.710;2022-07-04T02:57:01;14.18;;;6.75;;
30289;SDS011;17105;55.652;37.710;2022-07-04T02:57:37;19.65;;;7.07;;
30289;SDS011;17105;55.652;37.710;2022-07-04T02:58:11;17.35;;;6.80;;
30289;SDS011;17105;55.652;37.710;2022-07-04T02:58:46;16.02;;;6.80;;
30289;SDS011;17105;55.652;37.710;2022-07-04T02:59:25;16.73;;;7.00;;
30289;SDS011;17105;55.652;37.710;2022-07-04T02:59:58;13.93;;;6.60;;
30289;SDS011;17105;55.652;37.710;2022-07-04T03:00:33;18.23;;;7.05;;
30289;SDS011;17105;55.652;37.710;2022-07-04T03:01:06;14.85;;;7.07;;
30289;SDS011;17105;55.652;37.710;2022-07-04T03:01:41;11.55;;;6.75;;
30289;SDS011;17105;55.652;37.710;2022-07-04T03:02:16;19.23;;;6.28;;
30289;SDS011;17105;55.652;37.710;2022-07-04T03:02:49;19.60;;;7.38;;
30289;SDS011;17105;55.652;37.710;2022-07-04T03:03:23;14.52;;;6.63;;
30289;SDS011;17105;55.652;37.710;2022-07-04T03:03:58;15.32;;;6.57;;
30289;SDS011;17105;55.652;37.710;2022-07-04T03:04:33;16.35;;;7.03;;
30289;SDS011;17105;55.652;37.710;2022-07-04T03:05:08;11.25;;;5.95;;
30289;SDS011;17105;55.652;37.710;2022-07-04T03:05:45;20.60;;;7.20;;
30289;SDS011;17105;55.652;37.710;2022-07-04T03:06:20;18.55;;;6.97;;
30289;SDS011;17105;55.652;37.710;2022-07-04T03:06:55;18.60;;;6.40;;
30289;SDS011;17105;55.652;37.710;2022-07-04T03:07:31;16.45;;;6.43;;
30289;SDS011;17105;55.652;37.710;2022-07-04T03:08:04;18.33;;;7.95;;
30289;SDS011;17105;55.652;37.710;2022-07-04T03:08:39;22.63;;;8.23;;
30289;SDS011;17105;55.652;37.710;2022-07-04T03:09:13;15.05;;;7.65;;
30289;SDS011;17105;55.652;37.710;2022-07-04T03:09:46;16.33;;;6.88;;
30289;SDS011;17105;55.652;37.710;2022-07-04T03:10:21;13.80;;;6.68;;
30289;SDS011;17105;55.652;37.710;2022-07-04T03:10:55;13.50;;;6.75;;
30289;SDS011;17105;55.652;37.710;2022-07-04T03:11:29;12.07;;;6.63;;
30289;SDS011;17105;55.652;37.710;2022-07-04T03:12:05;18.52;;;7.45;;
30289;SDS011;17105;55.652;37.710;2022-07-04T03:12:39;18.75;;;7.82;;
30289;SDS011;17105;55.652;37.710;2022-07-04T03:13:12;13.23;;;6.60;;
30289;SDS011;17105;55.652;37.710;2022-07-04T03:13:49;17.05;;;7.13;;
30289;SDS011;17105;55.652;37.710;2022-07-04T03:14:23;14.00;;;7.05;;
30289;SDS011;17105;55.652;37.710;2022-07-04T03:14:58;13.77;;;6.85;;
30289;SDS011;17105;55.652;37.710;2022-07-04T03:15:32;14.68;;;7.00;;
30289;SDS011;17105;55.652;37.710;2022-07-04T03:16:06;19.65;;;7.13;;
30289;SDS011;17105;55.652;37.710;2022-07-04T03:16:43;15.00;;;6.20;;
30289;SDS011;17105;55.652;37.710;2022-07-04T03:17:16;16.70;;;6.65;;
30289;SDS011;17105;55.652;37.710;2022-07-04T03:17:51;15.38;;;6.80;;
30289;SDS011;17105;55.652;37.710;2022-07-04T03:18:25;17.17;;;7.13;;
30289;SDS011;17105;55.652;37.710;2022-07-04T03:19:02;19.80;;;6.80;;
30289;SDS011;17105;55.652;37.710;2022-07-04T03:19:36;19.15;;;7.78;;
30289;SDS011;17105;55.652;37.710;2022-07-04T03:20:10;17.08;;;6.65;;
30289;SDS011;17105;55.652;37.710;2022-07-04T03:20:45;15.63;;;6.72;;
30289;SDS011;17105;55.652;37.710;2022-07-04T03:21:19;18.85;;;6.78;;
30289;SDS011;17105;55.652;37.710;2022-07-04T03:21:56;17.70;;;7.07;;
30289;SDS011;17105;55.652;37.710;2022-07-04T03:22:31;12.80;;;6.72;;
30289;SDS011;17105;55.652;37.710;2022-07-04T03:23:04;17.42;;;7.95;;
30289;SDS011;17105;55.652;37.710;2022-07-04T03:23:39;17.17;;;7.45;;
30289;SDS011;17105;55.652;37.710;2022-07-04T03:24:13;19.20;;;7.20;;
30289;SDS011;17105;55.652;37.710;2022-07-04T03:24:48;19.27;;;7.10;;
30289;SDS011;17105;55.652;37.710;2022-07-04T03:25:24;16.20;;;6.80;;
30289;SDS011;17105;55.652;37.710;2022-07-04T03:25:58;15.65;;;7.05;;
30289;SDS011;17105;55.652;37.710;2022-07-04T03:26:33;13.32;;;6.95;;